Nearby METAR Reports

 

ENRY - Rygge (nor-Afb), Norway
Distance from station: 0 24km
Updated: 23/02/2018 16:50
Mostly cloudy
Mostly cloudy
 Wind from N
Wind: N 9 km/h
Temperature: -2°C
Wind Chill: -6°C
Dew Point: -4°C
Humidity: 86%
Barometer: 1029 hPa
Clouds: Mostly cloudy
Visibility: 10 km
Cloud details: Mostly cloudy 427 m
2018/02/23 15:50 ENRY 231550Z 35005KT 9999 BKN014 M02/M04 Q1029
ENTO - Torp (civ/Nor-Af, Norway
Distance from station: W 29km
Updated: 23/02/2018 16:50
Mostly cloudy
Mostly cloudy
 Wind from N
Wind: N 7 km/h
Temperature: -4°C
Wind Chill: -7°C
Dew Point: -4°C
Humidity: 100%
Barometer: 1029 hPa
Clouds: Mostly cloudy
Visibility: 10 km
Cloud details: Partly cloudy 91 m
Mostly cloudy 183 m
2018/02/23 15:50 ENTO 231550Z 01004KT 9999 SCT003 BKN006 M04/M04 Q1029
 
ENSN - Skien/Geiterygge, Norway
Distance from station: W 68km
Updated: 09/11/2015 09:50
NOT Current
Clear
Clear
 Wind from SSW
Wind: SSW 19 km/h, Gust: 41 km/h
Temperature: 7°C
Wind Chill: 4°C
Dew Point: 3°C
Humidity: 76%
Barometer: 1000 hPa
Summary: Clear
Visibility: greater than 10 km
2015/11/09 08:50 ENSN 090850Z 20010G22KT 150V240 CAVOK 07/03 Q1000